createdAt,value
2023-01-11T00:01:57.064Z,16.50
2023-01-11T00:04:30.753Z,17.10
2023-01-11T00:09:27.545Z,16.70
2023-01-11T00:11:56.119Z,17.20
2023-01-11T00:14:24.397Z,17.10
2023-01-11T00:16:52.691Z,19.30
2023-01-11T00:19:20.986Z,18.60
2023-01-11T00:21:50.399Z,17.40
2023-01-11T00:24:18.899Z,16.30
2023-01-11T00:26:47.761Z,15.80
2023-01-11T00:29:16.189Z,18.30
2023-01-11T00:31:44.501Z,16.70
2023-01-11T00:34:12.808Z,14.30
2023-01-11T00:36:42.293Z,15.90
2023-01-11T00:39:10.490Z,16.90
2023-01-11T00:41:58.028Z,15.40
2023-01-11T00:44:46.034Z,16.40
2023-01-11T00:47:35.111Z,15.90
2023-01-11T00:50:04.232Z,16.60
2023-01-11T00:52:32.901Z,16.60
2023-01-11T00:55:01.729Z,16.50
2023-01-11T00:57:30.580Z,12.90
2023-01-11T00:59:59.048Z,18.40
2023-01-11T01:02:27.532Z,16.00
2023-01-11T01:04:55.978Z,17.40
2023-01-11T01:07:24.305Z,16.90
2023-01-11T01:09:53.284Z,15.40
2023-01-11T01:12:40.859Z,16.90
2023-01-11T01:15:09.842Z,15.20
2023-01-11T01:17:38.176Z,15.40
2023-01-11T01:20:07.547Z,17.00
2023-01-11T01:22:35.818Z,14.00
2023-01-11T01:25:05.174Z,14.20
2023-01-11T01:27:34.409Z,15.30
2023-01-11T01:30:03.921Z,14.80
2023-01-11T01:32:34.447Z,14.50
2023-01-11T01:35:03.510Z,14.80
2023-01-11T01:37:31.957Z,16.10
2023-01-11T01:40:00.198Z,15.30
2023-01-11T01:42:29.061Z,15.50
2023-01-11T01:44:58.136Z,14.20
2023-01-11T01:47:54.024Z,14.10
2023-01-11T01:50:36.524Z,12.50
2023-01-11T01:53:11.745Z,15.60
2023-01-11T01:55:45.691Z,15.30
2023-01-11T01:58:18.988Z,15.20
2023-01-11T02:00:47.486Z,14.20
2023-01-11T02:03:22.657Z,15.00
2023-01-11T02:05:53.579Z,16.20
2023-01-11T02:08:33.644Z,15.70
2023-01-11T02:11:04.316Z,14.90
2023-01-11T02:13:46.298Z,15.60
2023-01-11T02:16:15.375Z,15.60
2023-01-11T02:18:44.250Z,15.80
2023-01-11T02:21:31.099Z,14.90
2023-01-11T02:24:31.064Z,15.10
2023-01-11T02:27:31.281Z,14.50
2023-01-11T02:30:24.187Z,15.90
2023-01-11T02:33:22.849Z,15.60
2023-01-11T02:36:13.318Z,15.50
2023-01-11T02:39:00.108Z,15.50
2023-01-11T02:42:16.155Z,15.60
2023-01-11T02:45:02.097Z,15.60
2023-01-11T02:47:50.215Z,15.10
2023-01-11T02:50:31.387Z,15.80
2023-01-11T02:53:13.369Z,15.00
2023-01-11T02:55:48.517Z,15.50
2023-01-11T02:58:20.273Z,14.70
2023-01-11T03:00:49.557Z,15.40
2023-01-11T03:03:20.242Z,14.00
2023-01-11T03:05:54.246Z,16.10
2023-01-11T03:08:50.900Z,14.90
2023-01-11T03:12:13.596Z,15.80
2023-01-11T03:14:59.659Z,16.00
2023-01-11T03:17:55.983Z,15.30
2023-01-11T03:20:31.176Z,14.60
2023-01-11T03:23:33.897Z,15.90
2023-01-11T03:26:16.005Z,15.00
2023-01-11T03:29:09.081Z,15.20
2023-01-11T03:31:45.275Z,13.90
2023-01-11T03:34:32.092Z,14.50
2023-01-11T03:37:08.275Z,14.20
2023-01-11T03:39:50.878Z,13.20
2023-01-11T03:42:22.787Z,13.00
2023-01-11T03:44:55.596Z,13.30
2023-01-11T03:47:28.074Z,11.70
2023-01-11T03:50:08.455Z,12.20
2023-01-11T03:52:42.555Z,12.20
2023-01-11T03:55:15.459Z,12.80
2023-01-11T03:57:52.773Z,11.20
2023-01-11T04:00:47.014Z,11.50
2023-01-11T04:03:16.101Z,11.80
2023-01-11T04:05:48.112Z,11.40
2023-01-11T04:08:16.596Z,12.50
2023-01-11T04:10:45.002Z,13.60
2023-01-11T04:13:13.384Z,13.40
2023-01-11T04:15:41.960Z,12.40
2023-01-11T04:18:10.906Z,11.30
2023-01-11T04:20:41.061Z,11.30
2023-01-11T04:23:10.685Z,12.00
2023-01-11T04:25:39.096Z,11.70
2023-01-11T04:28:07.407Z,11.20
2023-01-11T04:30:36.275Z,11.20
2023-01-11T04:33:04.733Z,10.90
2023-01-11T04:35:33.153Z,10.80
2023-01-11T04:38:01.574Z,10.70
2023-01-11T04:40:29.971Z,11.20
2023-01-11T04:43:02.534Z,10.60
2023-01-11T04:45:31.187Z,11.60
2023-01-11T04:48:00.042Z,11.00
2023-01-11T04:50:28.484Z,9.90
2023-01-11T04:52:59.474Z,10.70
2023-01-11T04:55:28.438Z,9.50
2023-01-11T04:57:57.541Z,10.10
2023-01-11T05:00:51.307Z,10.80
2023-01-11T05:03:19.935Z,6.90
2023-01-11T05:05:59.459Z,8.60
2023-01-11T05:08:30.118Z,8.60
2023-01-11T05:11:02.599Z,9.20
2023-01-11T05:13:44.361Z,8.10
2023-01-11T05:16:14.362Z,9.60
2023-01-11T05:18:47.366Z,7.70
2023-01-11T05:21:19.970Z,9.40
2023-01-11T05:23:49.479Z,7.70
2023-01-11T05:26:24.838Z,8.20
2023-01-11T05:28:55.894Z,8.60
2023-01-11T05:31:25.112Z,9.00
2023-01-11T05:33:54.202Z,10.00
2023-01-11T05:36:24.526Z,9.10
2023-01-11T05:38:55.125Z,9.60
2023-01-11T05:41:26.034Z,8.40
2023-01-11T05:44:14.323Z,8.60
2023-01-11T05:46:44.925Z,8.60
2023-01-11T05:49:14.324Z,8.60
2023-01-11T05:51:43.902Z,8.40
2023-01-11T05:54:14.712Z,8.20
2023-01-11T05:56:43.360Z,9.50
2023-01-11T05:59:12.379Z,8.60
2023-01-11T06:01:40.953Z,9.00
2023-01-11T06:04:09.509Z,8.50
2023-01-11T06:06:38.850Z,9.50
2023-01-11T06:09:07.860Z,8.80
2023-01-11T06:11:36.959Z,8.20
2023-01-11T06:14:05.287Z,9.00
2023-01-11T06:16:33.836Z,8.50
2023-01-11T06:19:02.295Z,9.00
2023-01-11T06:21:31.215Z,9.00
2023-01-11T06:24:00.161Z,8.20
2023-01-11T06:26:28.800Z,9.10
2023-01-11T06:28:58.114Z,9.40
2023-01-11T06:31:26.650Z,9.80
2023-01-11T06:33:55.596Z,8.80
2023-01-11T06:36:24.519Z,8.90
2023-01-11T06:38:54.808Z,10.10
2023-01-11T06:41:23.376Z,8.80
2023-01-11T06:43:51.901Z,9.60
2023-01-11T06:46:21.072Z,9.30
2023-01-11T06:48:50.157Z,9.40
2023-01-11T06:51:19.067Z,9.30
2023-01-11T06:53:47.920Z,10.50
2023-01-11T06:56:21.082Z,9.60
2023-01-11T06:59:02.014Z,9.70
2023-01-11T07:01:32.608Z,7.70
2023-01-11T07:04:01.488Z,8.90
2023-01-11T07:06:32.349Z,10.30
2023-01-11T07:09:00.738Z,8.70
2023-01-11T07:11:29.132Z,10.00
2023-01-11T07:13:57.431Z,9.50
2023-01-11T07:16:25.871Z,15.90
2023-01-11T07:18:54.439Z,10.30
2023-01-11T07:21:22.920Z,8.80
2023-01-11T07:23:52.436Z,9.60
2023-01-11T07:26:22.154Z,10.30
2023-01-11T07:28:50.622Z,9.30
2023-01-11T07:31:19.584Z,9.20
2023-01-11T07:33:48.557Z,8.60
2023-01-11T07:36:17.586Z,10.60
2023-01-11T07:38:47.644Z,9.20
2023-01-11T07:41:37.214Z,8.80
2023-01-11T07:44:07.559Z,8.50
2023-01-11T07:46:36.132Z,9.10
2023-01-11T07:49:04.755Z,8.60
2023-01-11T07:51:33.558Z,9.00
2023-01-11T07:54:04.108Z,9.00
2023-01-11T07:56:33.131Z,8.20
2023-01-11T07:59:01.535Z,8.40
2023-01-11T08:01:30.077Z,8.30
2023-01-11T08:03:58.418Z,7.20
2023-01-11T08:06:27.320Z,7.90
2023-01-11T08:08:55.848Z,7.10
2023-01-11T08:11:43.453Z,7.10
2023-01-11T08:14:30.929Z,8.10
2023-01-11T08:16:59.391Z,8.20
2023-01-11T08:19:28.024Z,9.00
2023-01-11T08:21:56.923Z,7.80
2023-01-11T08:24:26.415Z,8.40
2023-01-11T08:26:55.503Z,9.10
2023-01-11T08:29:25.776Z,9.40
2023-01-11T08:31:54.165Z,10.50
2023-01-11T08:34:22.790Z,8.10
2023-01-11T08:36:51.216Z,7.20
2023-01-11T08:39:19.639Z,8.10
2023-01-11T08:41:48.648Z,6.20
2023-01-11T08:44:25.446Z,7.10
2023-01-11T08:47:02.600Z,6.30
2023-01-11T08:49:31.403Z,7.80
2023-01-11T08:51:59.979Z,6.80
2023-01-11T08:54:28.457Z,8.30
2023-01-11T08:56:57.541Z,4.80
2023-01-11T08:59:34.158Z,6.10
2023-01-11T09:02:03.109Z,8.20
2023-01-11T09:04:33.381Z,5.90
2023-01-11T09:07:02.675Z,5.70
2023-01-11T09:09:31.827Z,6.00
2023-01-11T09:12:05.611Z,5.80
2023-01-11T09:14:35.068Z,6.30
2023-01-11T09:17:03.648Z,6.30
2023-01-11T09:19:33.867Z,6.50
2023-01-11T09:22:03.714Z,4.70
2023-01-11T09:24:32.696Z,5.50
2023-01-11T09:27:01.830Z,5.70
2023-01-11T09:29:31.357Z,5.50
2023-01-11T09:31:59.906Z,5.00
2023-01-11T09:34:28.645Z,5.10
2023-01-11T09:37:00.258Z,5.40
2023-01-11T09:39:29.349Z,4.80
2023-01-11T09:42:40.933Z,5.00
2023-01-11T09:45:24.892Z,4.90
2023-01-11T09:48:05.185Z,4.90
2023-01-11T09:50:42.074Z,3.70
2023-01-11T09:53:35.873Z,4.80
2023-01-11T09:56:12.483Z,4.60
2023-01-11T09:59:19.517Z,4.80
2023-01-11T10:01:57.861Z,4.70
2023-01-11T10:04:59.533Z,4.70
2023-01-11T10:18:22.097Z,5.20
2023-01-11T10:18:39.450Z,4.70
2023-01-11T10:20:05.848Z,5.30
2023-01-11T10:22:43.484Z,4.70
2023-01-11T10:25:35.245Z,6.40
2023-01-11T10:28:39.512Z,6.30
2023-01-11T10:31:47.837Z,6.40
2023-01-11T10:35:00.948Z,6.60
2023-01-11T10:37:54.460Z,8.00
2023-01-11T10:41:00.819Z,7.30
2023-01-11T10:43:33.114Z,6.70
2023-01-11T10:46:08.782Z,6.10
2023-01-11T10:48:43.567Z,5.60
2023-01-11T10:51:35.918Z,5.90
2023-01-11T10:54:18.516Z,5.50
2023-01-11T10:57:09.173Z,5.90
2023-01-11T11:00:17.266Z,6.10
2023-01-11T11:03:51.328Z,7.10
2023-01-11T11:06:44.661Z,5.20
2023-01-11T11:09:24.223Z,5.90
2023-01-11T11:12:01.812Z,5.00
2023-01-11T11:14:44.166Z,5.40
2023-01-11T11:17:32.146Z,5.80
2023-01-11T11:20:05.440Z,6.20
2023-01-11T11:22:34.550Z,6.30
2023-01-11T11:25:13.611Z,5.40
2023-01-11T11:27:53.039Z,5.90
2023-01-11T11:30:34.365Z,3.90
2023-01-11T11:33:08.173Z,5.00
2023-01-11T11:35:42.780Z,6.50
2023-01-11T11:38:32.759Z,5.80
2023-01-11T11:41:10.267Z,8.10
2023-01-11T11:43:44.337Z,7.50
2023-01-11T11:46:20.558Z,5.90
2023-01-11T11:49:17.839Z,7.20
2023-01-11T11:51:48.381Z,4.30
2023-01-11T11:54:31.391Z,6.90
2023-01-11T11:57:22.720Z,5.10
2023-01-11T12:00:15.292Z,5.10
2023-01-11T12:02:51.303Z,5.20
2023-01-11T12:05:23.095Z,5.00
2023-01-11T12:07:55.902Z,4.70
2023-01-11T12:10:27.968Z,4.50
2023-01-11T12:12:58.427Z,4.20
2023-01-11T12:15:35.072Z,4.10
2023-01-11T12:18:27.236Z,4.50
2023-01-11T12:21:00.636Z,5.40
2023-01-11T12:23:29.829Z,6.30
2023-01-11T12:26:19.827Z,5.30
2023-01-11T12:29:24.982Z,3.90
2023-01-11T12:32:15.915Z,4.20
2023-01-11T12:35:14.410Z,4.80
2023-01-11T12:38:09.017Z,4.20
2023-01-11T12:40:47.608Z,4.40
2023-01-11T12:43:33.322Z,5.00
2023-01-11T12:46:30.418Z,5.10
2023-01-11T12:49:23.689Z,3.60
2023-01-11T12:52:01.824Z,5.30
2023-01-11T12:55:01.918Z,4.60
2023-01-11T12:58:14.108Z,6.90
2023-01-11T13:01:13.085Z,2.80
2023-01-11T13:04:21.634Z,4.40
2023-01-11T13:16:22.139Z,4.30
2023-01-11T13:19:15.097Z,4.20
2023-01-11T13:22:04.771Z,4.00
2023-01-11T13:24:53.575Z,4.80
2023-01-11T13:36:24.058Z,3.70
2023-01-11T13:39:10.348Z,6.70
2023-01-11T13:41:48.636Z,5.90
2023-01-11T13:44:31.093Z,9.20
2023-01-11T13:47:12.829Z,5.60
2023-01-11T13:50:23.217Z,4.10
2023-01-11T13:53:16.464Z,6.60
2023-01-11T13:56:03.186Z,4.80
2023-01-11T13:58:37.719Z,5.50
2023-01-11T14:01:14.784Z,5.20
2023-01-11T14:03:46.239Z,4.90
2023-01-11T14:06:17.793Z,5.10
2023-01-11T14:09:14.047Z,6.40
2023-01-11T14:12:40.421Z,7.00
2023-01-11T14:15:39.519Z,6.40
2023-01-11T14:18:21.613Z,5.80
2023-01-11T14:21:21.780Z,4.90
2023-01-11T14:23:53.457Z,5.70
2023-01-11T14:26:47.130Z,5.20
2023-01-11T14:29:48.752Z,6.30
2023-01-11T14:32:39.273Z,6.10
2023-01-11T14:35:08.171Z,5.10
2023-01-11T14:37:36.704Z,5.10
2023-01-11T14:40:35.744Z,6.20
2023-01-11T14:43:35.224Z,6.10
2023-01-11T14:46:22.742Z,6.00
2023-01-11T14:49:10.789Z,5.30
2023-01-11T14:52:03.538Z,5.40
2023-01-11T14:54:36.736Z,5.10
2023-01-11T14:57:05.418Z,7.90
2023-01-11T14:59:42.733Z,6.30
2023-01-11T15:02:11.137Z,5.50
2023-01-11T15:04:59.493Z,6.50
2023-01-11T15:07:30.860Z,7.00
2023-01-11T15:10:03.416Z,6.40
2023-01-11T15:12:38.220Z,7.30
2023-01-11T15:15:19.035Z,6.30
2023-01-11T15:18:15.213Z,5.70
2023-01-11T15:21:06.949Z,6.00
2023-01-11T15:23:49.181Z,6.60
2023-01-11T15:26:21.588Z,6.00
2023-01-11T15:28:58.945Z,5.90
2023-01-11T15:31:53.369Z,5.80
2023-01-11T15:34:28.797Z,6.00
2023-01-11T15:37:00.306Z,6.10
2023-01-11T15:39:54.760Z,5.50
2023-01-11T15:42:41.625Z,5.70
2023-01-11T15:45:32.707Z,5.80
2023-01-11T15:48:01.621Z,5.60
2023-01-11T15:51:06.030Z,5.30
2023-01-11T15:53:56.813Z,4.00
2023-01-11T15:56:47.453Z,4.90
2023-01-11T15:59:32.709Z,5.40
2023-01-11T16:02:36.478Z,4.70
2023-01-11T16:05:19.991Z,5.70
2023-01-11T16:08:18.001Z,4.90
2023-01-11T16:11:32.899Z,5.60
2023-01-11T16:14:34.127Z,6.90
2023-01-11T16:17:03.304Z,6.00
2023-01-11T16:19:40.114Z,5.70
2023-01-11T16:22:16.874Z,5.70
2023-01-11T16:24:48.203Z,6.30
2023-01-11T16:27:27.251Z,7.20
2023-01-11T16:29:56.815Z,5.50
2023-01-11T16:32:33.857Z,7.40
2023-01-11T16:35:03.991Z,6.20
2023-01-11T16:37:44.265Z,7.20
2023-01-11T16:40:21.277Z,6.00
2023-01-11T16:42:57.815Z,6.20
2023-01-11T16:45:47.068Z,6.20
2023-01-11T16:48:17.400Z,5.80
2023-01-11T16:51:01.496Z,7.60
2023-01-11T16:53:38.925Z,7.20
2023-01-11T16:56:17.373Z,7.40
2023-01-11T16:59:14.851Z,7.10
2023-01-11T17:02:05.181Z,7.40
2023-01-11T17:04:36.123Z,8.10
2023-01-11T17:07:21.693Z,6.60
2023-01-11T17:09:50.296Z,7.70
2023-01-11T17:12:27.962Z,6.60
2023-01-11T17:15:08.706Z,5.80
2023-01-11T17:17:38.509Z,7.30
2023-01-11T17:20:20.444Z,8.10
2023-01-11T17:22:54.237Z,7.70
2023-01-11T17:25:41.045Z,6.90
2023-01-11T17:28:20.195Z,8.40
2023-01-11T17:30:52.648Z,9.80
2023-01-11T17:33:32.352Z,11.90
2023-01-11T17:36:02.934Z,10.30
2023-01-11T17:38:31.908Z,11.90
2023-01-11T17:41:01.535Z,11.00
2023-01-11T17:43:49.591Z,9.10
2023-01-11T17:46:27.135Z,9.90
2023-01-11T17:49:00.358Z,9.30
2023-01-11T17:51:34.397Z,10.30
2023-01-11T17:54:02.792Z,9.50
2023-01-11T17:56:56.538Z,8.90
2023-01-11T17:59:30.470Z,9.00
2023-01-11T18:02:04.352Z,7.70
2023-01-11T18:07:13.240Z,7.00
2023-01-11T18:09:57.787Z,9.10
2023-01-11T18:12:34.236Z,8.70
2023-01-11T18:15:06.348Z,7.20
2023-01-11T18:17:45.094Z,8.60
2023-01-11T18:20:17.279Z,9.70
2023-01-11T18:22:54.710Z,8.90
2023-01-11T18:25:28.713Z,10.80
2023-01-11T18:28:12.409Z,10.60
2023-01-11T18:30:46.108Z,9.20
2023-01-11T18:33:19.856Z,10.20
2023-01-11T18:35:52.381Z,10.20
2023-01-11T18:38:29.190Z,9.30
2023-01-11T18:41:00.097Z,9.00
2023-01-11T18:43:31.464Z,9.70
2023-01-11T18:46:00.370Z,9.20
2023-01-11T18:48:29.676Z,9.70
2023-01-11T18:50:59.672Z,11.00
2023-01-11T18:53:30.540Z,10.30
2023-01-11T18:56:02.400Z,7.70
2023-01-11T18:58:31.673Z,9.70
2023-01-11T19:01:01.097Z,11.20
2023-01-11T19:03:30.871Z,9.60
2023-01-11T19:05:59.485Z,9.70
2023-01-11T19:08:28.864Z,9.90
2023-01-11T19:10:58.379Z,11.10
2023-01-11T19:13:28.276Z,9.90
2023-01-11T19:15:57.401Z,9.60
2023-01-11T19:18:26.337Z,9.50
2023-01-11T19:20:55.391Z,9.80
2023-01-11T19:26:00.545Z,9.00
2023-01-11T19:28:30.281Z,9.30
2023-01-11T19:31:02.497Z,10.40
2023-01-11T19:33:33.592Z,9.00
2023-01-11T19:36:07.281Z,11.00
2023-01-11T19:38:37.321Z,10.80
2023-01-11T19:41:10.058Z,9.70
2023-01-11T19:43:45.154Z,9.40
2023-01-11T19:46:19.472Z,9.50
2023-01-11T19:48:57.294Z,11.30
2023-01-11T19:51:26.069Z,11.40
2023-01-11T19:53:58.172Z,11.00
2023-01-11T19:56:26.950Z,11.10
2023-01-11T19:58:57.097Z,11.90
2023-01-11T20:01:26.261Z,12.30
2023-01-11T20:03:55.843Z,12.60
2023-01-11T20:06:26.001Z,11.90
2023-01-11T20:08:55.846Z,12.60
2023-01-11T20:11:25.373Z,12.20
2023-01-11T20:13:54.449Z,11.60
2023-01-11T20:16:24.654Z,12.10
2023-01-11T20:18:59.064Z,11.50
2023-01-11T20:21:32.985Z,12.80
2023-01-11T20:24:03.263Z,10.20
2023-01-11T20:26:34.400Z,12.60
2023-01-11T20:29:06.373Z,11.70
2023-01-11T20:31:36.055Z,10.80
2023-01-11T20:34:11.548Z,10.50
2023-01-11T20:36:43.306Z,10.80
2023-01-11T20:39:13.117Z,11.80
2023-01-11T20:41:47.859Z,10.90
2023-01-11T20:59:47.143Z,9.40
2023-01-11T21:02:15.642Z,10.30
2023-01-11T21:04:44.525Z,10.20
2023-01-11T21:07:13.594Z,9.60
2023-01-11T21:09:41.942Z,9.70
2023-01-11T21:12:10.347Z,10.80
2023-01-11T21:14:38.910Z,9.80
2023-01-11T21:17:07.397Z,11.70
2023-01-11T21:19:35.898Z,10.90
2023-01-11T21:22:05.308Z,10.30
2023-01-11T21:24:33.647Z,11.40
2023-01-11T21:27:02.707Z,10.70
2023-01-11T21:29:31.208Z,10.80
2023-01-11T21:31:59.928Z,11.00
2023-01-11T21:34:28.928Z,11.60
2023-01-11T21:36:57.845Z,10.90
2023-01-11T21:39:27.039Z,12.00
2023-01-11T21:41:55.585Z,11.60
2023-01-11T21:44:34.702Z,10.40
2023-01-11T21:47:07.053Z,10.90
2023-01-11T21:50:01.613Z,10.90
2023-01-11T21:52:30.103Z,12.50
2023-01-11T21:54:58.529Z,10.50
2023-01-11T21:57:27.088Z,11.40
2023-01-11T21:59:55.496Z,11.10
2023-01-11T22:02:24.588Z,11.00
2023-01-11T22:04:57.843Z,11.90
2023-01-11T22:07:29.677Z,11.30
2023-01-11T22:10:04.625Z,12.00
2023-01-11T22:12:34.197Z,11.70
2023-01-11T22:15:02.762Z,11.00
2023-01-11T22:17:31.300Z,12.30
2023-01-11T22:19:59.759Z,11.70
2023-01-11T22:22:29.398Z,11.20
2023-01-11T22:24:58.213Z,12.80
2023-01-11T22:27:26.572Z,11.70
2023-01-11T22:29:55.212Z,11.90
2023-01-11T22:32:23.604Z,11.60
2023-01-11T22:34:52.586Z,12.10
2023-01-11T22:37:21.522Z,12.00
2023-01-11T22:39:50.003Z,12.30
2023-01-11T22:42:18.407Z,12.20
2023-01-11T22:44:47.274Z,12.00
2023-01-11T22:47:15.715Z,12.40
2023-01-11T22:49:47.025Z,12.80
2023-01-11T22:52:15.414Z,12.30
2023-01-11T22:54:44.383Z,13.80
2023-01-11T22:57:13.455Z,13.90
2023-01-11T22:59:41.844Z,12.50
2023-01-11T23:02:10.406Z,13.80
2023-01-11T23:04:39.327Z,13.60
2023-01-11T23:07:08.257Z,13.70
2023-01-11T23:09:36.907Z,14.40
2023-01-11T23:12:24.633Z,13.50
2023-01-11T23:14:53.329Z,14.50
2023-01-11T23:17:21.807Z,13.60
2023-01-11T23:19:50.216Z,13.90
2023-01-11T23:22:18.591Z,13.20
2023-01-11T23:24:47.062Z,13.00
2023-01-11T23:27:16.141Z,13.30
2023-01-11T23:29:45.129Z,13.10
2023-01-11T23:32:13.554Z,13.80
2023-01-11T23:34:41.952Z,13.70
2023-01-11T23:37:10.374Z,12.80
2023-01-11T23:39:38.786Z,12.50
2023-01-11T23:42:25.915Z,13.90
2023-01-11T23:44:58.296Z,12.50
2023-01-11T23:47:29.995Z,13.80
2023-01-11T23:50:23.902Z,14.40
2023-01-11T23:52:52.332Z,14.60
2023-01-11T23:55:21.277Z,14.00
2023-01-11T23:58:09.303Z,13.70
